Terminal Aerodrome Forecast
Issued by NWS

Home | Current Version | Previous Version | Text Only | Print | Product List | Glossary On
Versions: 1 2 3 4 5 6 7 8 9 10 11 12 13 14 15 16 17 18 19 20 21 22 23 24 25 26 27 28 29 30 31 32 33 34 35 36 37 38 39 40 41 42 43 44 45 46 47 48 49 50
000
FTUS45 KGJT 312332
TAFMTJ
TAF
KMTJ 312332Z 0100/0124 VRB05KT P6SM -RA OVC015
      TEMPO 0100/0101 5SM -RA BR BKN008 OVC015
     FM010130 33005KT P6SM VCSH SCT020 OVC040
     FM010230 15004KT P6SM SCT025 BKN050
     FM010500 16004KT P6SM SCT050 BKN090
     FM010800 15004KT 5SM BR SCT050 SCT090
     FM011500 VRB03KT P6SM SCT070 SCT150
     FM011800 33004KT P6SM SCT070 SCT150=

USA.gov is the U.S. government's official web portal to all federal, state and local government web resources and services.